createdAt,value
2022-08-28T00:04:43.718Z,6.37
2022-08-28T00:11:10.574Z,6.20
2022-08-28T00:13:37.884Z,6.23
2022-08-28T00:16:05.592Z,6.80
2022-08-28T00:18:32.916Z,6.10
2022-08-28T00:21:01.380Z,5.97
2022-08-28T00:23:42.251Z,5.80
2022-08-28T00:26:11.970Z,6.23
2022-08-28T00:28:39.162Z,6.10
2022-08-28T00:35:06.237Z,6.00
2022-08-28T00:37:33.439Z,5.77
2022-08-28T00:40:00.847Z,6.00
2022-08-28T00:42:29.326Z,5.73
2022-08-28T00:44:56.530Z,6.10
2022-08-28T00:47:23.711Z,5.80
2022-08-28T00:49:55.843Z,5.80
2022-08-28T00:57:20.647Z,6.00
2022-08-28T00:59:54.193Z,5.70
2022-08-28T01:06:30.687Z,5.50
2022-08-28T01:08:59.098Z,6.17
2022-08-28T01:11:27.923Z,5.90
2022-08-28T01:13:58.399Z,6.00
2022-08-28T01:16:32.331Z,6.10
2022-08-28T01:19:04.592Z,5.87
2022-08-28T01:22:16.539Z,6.33
2022-08-28T01:24:48.358Z,6.10
2022-08-28T01:27:16.420Z,6.67
2022-08-28T01:29:45.193Z,6.40
2022-08-28T01:32:31.779Z,6.30
2022-08-28T01:34:59.766Z,6.00
2022-08-28T01:37:27.020Z,6.50
2022-08-28T01:39:54.370Z,6.07
2022-08-28T01:46:21.315Z,6.00
2022-08-28T01:48:49.233Z,6.17
2022-08-28T01:51:17.963Z,5.93
2022-08-28T01:53:46.822Z,5.80
2022-08-28T01:56:16.617Z,5.70
2022-08-28T02:02:56.077Z,6.03
2022-08-28T02:05:26.026Z,6.10
2022-08-28T02:11:52.782Z,6.30
2022-08-28T02:18:21.164Z,6.67
2022-08-28T02:20:48.375Z,6.00
2022-08-28T02:23:17.265Z,6.00
2022-08-28T02:29:54.055Z,6.07
2022-08-28T02:32:21.513Z,6.03
2022-08-28T02:34:48.697Z,5.87
2022-08-28T02:37:15.970Z,5.30
2022-08-28T02:39:43.300Z,6.07
2022-08-28T02:42:10.458Z,6.57
2022-08-28T02:44:38.277Z,5.67
2022-08-28T02:47:05.649Z,6.37
2022-08-28T02:57:42.575Z,6.00
2022-08-28T03:00:13.725Z,5.73
2022-08-28T03:02:43.333Z,5.57
2022-08-28T03:05:11.394Z,5.57
2022-08-28T03:07:38.703Z,5.47
2022-08-28T03:10:08.614Z,6.33
2022-08-28T03:16:45.683Z,6.20
2022-08-28T03:19:13.128Z,6.27
2022-08-28T03:21:40.332Z,6.07
2022-08-28T03:24:07.696Z,6.40
2022-08-28T03:30:44.601Z,6.10
2022-08-28T03:33:11.925Z,5.80
2022-08-28T03:39:38.865Z,6.27
2022-08-28T03:42:06.114Z,6.20
2022-08-28T03:44:34.228Z,6.03
2022-08-28T03:47:01.549Z,6.10
2022-08-28T03:49:28.755Z,6.10
2022-08-28T03:51:56.065Z,6.23
2022-08-28T03:54:23.441Z,6.50
2022-08-28T03:56:50.827Z,6.27
2022-08-28T03:59:19.048Z,6.60
2022-08-28T04:01:46.409Z,6.20
2022-08-28T04:04:13.876Z,6.40
2022-08-28T04:06:41.892Z,6.07
2022-08-28T04:09:09.162Z,5.90
2022-08-28T04:11:41.377Z,6.20
2022-08-28T04:14:10.459Z,6.10
2022-08-28T04:16:38.415Z,6.30
2022-08-28T04:19:05.687Z,6.50
2022-08-28T04:21:32.880Z,6.27
2022-08-28T04:24:00.100Z,6.87
2022-08-28T04:26:27.941Z,6.50
2022-08-28T04:28:55.995Z,7.03
2022-08-28T04:31:31.805Z,6.53
2022-08-28T04:34:05.494Z,7.13
2022-08-28T04:36:33.481Z,7.00
2022-08-28T04:39:02.614Z,6.10
2022-08-28T04:41:30.059Z,6.13
2022-08-28T04:43:58.665Z,7.37
2022-08-28T04:46:25.962Z,7.00
2022-08-28T04:48:53.204Z,6.67
2022-08-28T04:59:13.738Z,7.07
2022-08-28T05:01:42.474Z,6.40
2022-08-28T05:08:09.199Z,7.20
2022-08-28T05:10:40.264Z,6.00
2022-08-28T05:13:10.502Z,5.97
2022-08-28T05:15:43.271Z,7.53
2022-08-28T05:18:12.017Z,7.00
2022-08-28T05:20:46.121Z,6.87
2022-08-28T05:31:34.106Z,7.23
2022-08-28T05:34:02.906Z,7.03
2022-08-28T05:36:34.709Z,6.90
2022-08-28T05:39:05.820Z,7.10
2022-08-28T05:41:34.293Z,8.23
2022-08-28T05:44:06.550Z,8.73
2022-08-28T05:46:34.506Z,6.67
2022-08-28T05:49:01.984Z,6.60
2022-08-28T05:51:30.123Z,7.30
2022-08-28T05:53:58.451Z,7.27
2022-08-28T05:56:30.003Z,7.17
2022-08-28T06:04:26.127Z,7.07
2022-08-28T06:06:54.283Z,6.93
2022-08-28T06:13:22.120Z,7.43
2022-08-28T06:16:17.130Z,7.80
2022-08-28T06:18:44.563Z,7.27
2022-08-28T06:25:11.197Z,7.60
2022-08-28T06:27:38.555Z,7.00
2022-08-28T06:38:12.889Z,7.03
2022-08-28T06:40:49.258Z,7.70
2022-08-28T06:43:23.551Z,6.90
2022-08-28T06:49:50.516Z,7.10
2022-08-28T06:52:18.101Z,7.27
2022-08-28T06:54:55.632Z,7.80
2022-08-28T07:01:54.962Z,7.47
2022-08-28T07:12:31.724Z,7.70
2022-08-28T07:14:59.173Z,7.83
2022-08-28T07:17:26.482Z,7.73
2022-08-28T07:24:57.874Z,7.17
2022-08-28T07:31:29.533Z,8.00
2022-08-28T07:33:57.136Z,7.10
2022-08-28T07:36:29.842Z,7.60
2022-08-28T07:38:59.707Z,7.13
2022-08-28T07:41:31.329Z,7.40
2022-08-28T07:43:59.358Z,7.70
2022-08-28T07:46:26.874Z,7.37
2022-08-28T08:01:24.667Z,7.43
2022-08-28T08:03:51.967Z,7.70
2022-08-28T08:10:34.801Z,7.67
2022-08-28T08:13:02.017Z,7.37
2022-08-28T08:15:31.339Z,7.27
2022-08-28T08:17:58.849Z,7.57
2022-08-28T08:24:27.351Z,7.10
2022-08-28T08:27:00.155Z,7.57
2022-08-28T08:29:35.267Z,7.37
2022-08-28T08:40:13.729Z,6.90
2022-08-28T08:42:48.697Z,7.27
2022-08-28T08:45:19.949Z,8.20
2022-08-28T08:47:54.138Z,6.60
2022-08-28T08:54:31.137Z,7.27
2022-08-28T08:57:02.291Z,7.13
2022-08-28T08:59:34.478Z,7.00
2022-08-28T09:02:18.917Z,7.40
2022-08-28T09:10:00.048Z,6.80
2022-08-28T09:12:31.382Z,7.03
2022-08-28T09:23:12.689Z,5.60
2022-08-28T09:26:04.444Z,5.50
2022-08-28T09:28:39.372Z,4.83
2022-08-28T09:31:10.706Z,5.57
2022-08-28T09:33:45.074Z,5.27
2022-08-28T09:40:32.274Z,4.50
2022-08-28T09:43:25.430Z,4.53
2022-08-28T09:46:02.769Z,4.63
2022-08-28T09:48:41.461Z,4.53
2022-08-28T09:55:18.038Z,4.77
2022-08-28T09:57:46.844Z,4.50
2022-08-28T10:05:47.451Z,4.47
2022-08-28T10:08:23.523Z,3.90
2022-08-28T10:11:01.198Z,4.60
2022-08-28T10:13:39.640Z,4.88
2022-08-28T10:20:37.845Z,4.10
2022-08-28T10:23:24.710Z,4.60
2022-08-28T10:26:25.008Z,4.80
2022-08-28T10:29:09.765Z,4.72
2022-08-28T10:32:15.049Z,4.53
2022-08-28T10:35:08.897Z,4.75
2022-08-28T10:37:47.738Z,5.65
2022-08-28T10:40:26.300Z,4.72
2022-08-28T10:46:58.058Z,7.07
2022-08-28T10:49:39.728Z,5.40
2022-08-28T10:52:19.634Z,4.55
2022-08-28T11:02:59.454Z,4.45
2022-08-28T11:05:36.616Z,4.35
2022-08-28T11:08:20.253Z,4.20
2022-08-28T11:14:57.537Z,3.70
2022-08-28T11:17:25.112Z,4.30
2022-08-28T11:20:01.666Z,4.80
2022-08-28T11:22:38.248Z,4.00
2022-08-28T11:25:34.387Z,3.50
2022-08-28T11:28:37.098Z,5.95
2022-08-28T11:35:30.744Z,3.90
2022-08-28T11:37:59.104Z,3.83
2022-08-28T11:40:32.812Z,3.90
2022-08-28T11:43:16.201Z,4.15
2022-08-28T11:49:40.974Z,3.38
2022-08-28T11:56:41.151Z,3.38
2022-08-28T11:59:35.213Z,3.10
2022-08-28T12:02:40.410Z,2.90
2022-08-28T12:08:59.161Z,3.00
2022-08-28T12:11:59.395Z,3.10
2022-08-28T12:14:26.505Z,3.58
2022-08-28T12:16:59.731Z,3.53
2022-08-28T12:19:34.093Z,3.75
2022-08-28T12:22:16.266Z,3.53
2022-08-28T12:29:36.092Z,3.65
2022-08-28T12:32:40.564Z,3.28
2022-08-28T12:35:22.686Z,3.38
2022-08-28T12:37:56.080Z,3.45
2022-08-28T12:44:33.496Z,4.00
2022-08-28T12:47:59.417Z,3.13
2022-08-28T12:50:33.524Z,2.70
2022-08-28T12:53:06.413Z,3.03
2022-08-28T12:55:34.623Z,2.10
2022-08-28T12:58:01.903Z,2.65
2022-08-28T13:04:37.252Z,3.08
2022-08-28T13:11:04.943Z,3.50
2022-08-28T13:13:46.686Z,2.90
2022-08-28T13:16:35.272Z,3.40
2022-08-28T13:19:05.497Z,3.42
2022-08-28T13:30:16.648Z,2.95
2022-08-28T13:33:02.547Z,3.65
2022-08-28T13:35:37.025Z,3.45
2022-08-28T13:43:08.156Z,2.65
2022-08-28T13:45:44.191Z,2.15
2022-08-28T13:48:19.866Z,1.88
2022-08-28T13:50:52.938Z,1.60
2022-08-28T13:53:21.452Z,2.03
2022-08-28T13:55:50.491Z,1.70
2022-08-28T14:02:27.826Z,2.13
2022-08-28T14:04:55.090Z,2.28
2022-08-28T14:07:22.569Z,1.98
2022-08-28T14:09:54.052Z,2.20
2022-08-28T14:12:32.695Z,1.95
2022-08-28T14:15:01.312Z,2.08
2022-08-28T14:21:21.054Z,2.30
2022-08-28T14:23:48.344Z,1.95
2022-08-28T14:30:15.494Z,2.78
2022-08-28T14:32:42.942Z,2.55
2022-08-28T14:35:10.893Z,2.60
2022-08-28T14:41:47.743Z,2.55
2022-08-28T14:44:15.705Z,2.85
2022-08-28T14:46:46.192Z,2.60
2022-08-28T14:53:14.874Z,2.53
2022-08-28T14:55:47.825Z,2.42
2022-08-28T14:58:17.651Z,1.95
2022-08-28T15:00:49.263Z,2.22
2022-08-28T15:08:19.481Z,2.10
2022-08-28T15:10:46.824Z,2.05
2022-08-28T15:13:15.323Z,1.95
2022-08-28T15:19:52.338Z,2.03
2022-08-28T15:22:27.485Z,2.00
2022-08-28T15:24:55.677Z,2.38
2022-08-28T15:27:23.015Z,2.40
2022-08-28T15:29:50.441Z,2.10
2022-08-28T15:32:17.615Z,2.20
2022-08-28T15:34:44.832Z,2.00
2022-08-28T15:37:13.348Z,2.30
2022-08-28T15:39:40.781Z,2.30
2022-08-28T15:42:08.742Z,1.90
2022-08-28T15:44:36.366Z,2.40
2022-08-28T15:47:04.029Z,2.08
2022-08-28T15:53:27.665Z,2.30
2022-08-28T15:55:54.934Z,2.40
2022-08-28T16:06:20.748Z,2.10
2022-08-28T16:08:49.440Z,2.47
2022-08-28T16:11:19.970Z,2.47
2022-08-28T16:13:47.215Z,2.45
2022-08-28T16:16:14.639Z,2.45
2022-08-28T16:19:05.561Z,2.10
2022-08-28T16:21:33.463Z,2.42
2022-08-28T16:35:56.985Z,2.50
2022-08-28T16:39:17.976Z,1.90
2022-08-28T16:41:45.161Z,1.95
2022-08-28T16:44:12.457Z,2.50
2022-08-28T16:47:11.016Z,2.35
2022-08-28T16:49:38.244Z,2.20
2022-08-28T16:52:19.941Z,2.20
2022-08-28T16:55:25.355Z,2.40
2022-08-28T16:58:47.059Z,2.25
2022-08-28T17:01:18.001Z,2.08
2022-08-28T17:03:49.128Z,2.00
2022-08-28T17:06:24.026Z,2.10
2022-08-28T17:17:01.530Z,2.20
2022-08-28T17:19:28.745Z,2.25
2022-08-28T17:21:55.966Z,2.22
2022-08-28T17:32:24.523Z,2.13
2022-08-28T17:34:51.962Z,1.83
2022-08-28T17:41:18.470Z,2.10
2022-08-28T17:43:45.699Z,2.25
2022-08-28T17:46:20.190Z,2.13
2022-08-28T17:48:54.312Z,2.20
2022-08-28T17:55:32.677Z,2.45
2022-08-28T17:57:59.861Z,2.30
2022-08-28T18:00:27.177Z,2.20
2022-08-28T18:07:03.844Z,2.10
2022-08-28T18:09:31.150Z,2.10
2022-08-28T18:15:59.118Z,1.92
2022-08-28T18:18:34.434Z,2.00
2022-08-28T18:21:03.934Z,2.10
2022-08-28T18:23:31.218Z,2.30
2022-08-28T18:25:58.441Z,2.00
2022-08-28T18:28:26.434Z,2.40
2022-08-28T18:30:53.903Z,2.70
2022-08-28T18:33:24.537Z,2.30
2022-08-28T18:35:53.126Z,2.40
2022-08-28T18:38:23.110Z,1.90
2022-08-28T18:40:50.591Z,2.27
2022-08-28T18:43:17.868Z,2.20
2022-08-28T18:45:45.026Z,2.43
2022-08-28T18:48:12.539Z,2.30
2022-08-28T18:50:44.400Z,2.10
2022-08-28T18:53:15.541Z,2.23
2022-08-28T18:55:43.569Z,2.27
2022-08-28T18:58:15.099Z,2.03
2022-08-28T19:00:44.143Z,2.30
2022-08-28T19:03:12.194Z,2.57
2022-08-28T19:05:39.991Z,2.40
2022-08-28T19:08:07.876Z,2.33
2022-08-28T19:10:37.174Z,2.27
2022-08-28T19:13:05.952Z,2.00
2022-08-28T19:15:34.756Z,2.30
2022-08-28T19:18:03.710Z,2.40
2022-08-28T19:20:32.211Z,2.33
2022-08-28T19:23:00.337Z,2.33
2022-08-28T19:25:29.711Z,2.30
2022-08-28T19:28:01.725Z,2.40
2022-08-28T19:30:33.565Z,2.07
2022-08-28T19:33:04.788Z,2.30
2022-08-28T19:35:32.910Z,2.23
2022-08-28T19:38:00.699Z,2.00
2022-08-28T19:40:28.266Z,2.20
2022-08-28T19:42:56.088Z,2.37
2022-08-28T19:45:23.939Z,2.40
2022-08-28T19:47:51.561Z,2.30
2022-08-28T19:50:19.852Z,2.13
2022-08-28T19:52:47.617Z,2.57
2022-08-28T19:55:22.934Z,2.23
2022-08-28T19:57:50.497Z,2.33
2022-08-28T20:00:21.349Z,2.50
2022-08-28T20:02:50.318Z,2.60
2022-08-28T20:05:18.707Z,2.70
2022-08-28T20:07:46.351Z,2.50
2022-08-28T20:10:15.471Z,2.97
2022-08-28T20:12:48.246Z,2.57
2022-08-28T20:15:18.529Z,2.40
2022-08-28T20:17:49.641Z,2.93
2022-08-28T20:20:21.271Z,2.87
2022-08-28T20:22:49.215Z,2.93
2022-08-28T20:25:22.106Z,2.67
2022-08-28T20:27:49.660Z,2.67
2022-08-28T20:30:18.044Z,2.70
2022-08-28T20:32:45.618Z,3.30
2022-08-28T20:35:13.862Z,3.30
2022-08-28T20:37:45.769Z,3.10
2022-08-28T20:40:16.674Z,2.80
2022-08-28T20:42:45.380Z,2.67
2022-08-28T20:45:14.117Z,2.47
2022-08-28T20:47:41.688Z,2.77
2022-08-28T20:50:10.162Z,3.17
2022-08-28T20:52:38.563Z,2.50
2022-08-28T20:55:07.916Z,2.67
2022-08-28T20:57:36.269Z,3.03
2022-08-28T21:00:07.175Z,2.90
2022-08-28T21:02:34.756Z,2.80
2022-08-28T21:05:02.578Z,2.80
2022-08-28T21:07:30.262Z,3.23
2022-08-28T21:10:06.094Z,2.93
2022-08-28T21:12:36.886Z,2.60
2022-08-28T21:15:06.495Z,2.97
2022-08-28T21:17:34.597Z,2.97
2022-08-28T21:20:06.399Z,2.93
2022-08-28T21:22:35.867Z,2.90
2022-08-28T21:25:05.734Z,2.87
2022-08-28T21:27:33.730Z,3.23
2022-08-28T21:30:02.741Z,2.70
2022-08-28T21:32:31.461Z,2.90
2022-08-28T21:34:59.158Z,3.30
2022-08-28T21:37:26.727Z,3.30
2022-08-28T21:39:56.455Z,3.40
2022-08-28T21:42:24.852Z,3.40
2022-08-28T21:44:52.786Z,3.23
2022-08-28T21:47:21.690Z,3.43
2022-08-28T21:49:53.920Z,3.33
2022-08-28T21:52:24.766Z,3.57
2022-08-28T21:55:00.784Z,3.40
2022-08-28T21:57:29.243Z,3.63
2022-08-28T21:59:57.054Z,2.83
2022-08-28T22:02:25.142Z,3.00
2022-08-28T22:04:52.938Z,3.23
2022-08-28T22:07:21.041Z,3.20
2022-08-28T22:09:48.602Z,3.43
2022-08-28T22:15:53.768Z,3.60
2022-08-28T22:18:21.453Z,3.37
2022-08-28T22:20:55.836Z,3.20
2022-08-28T22:23:23.808Z,3.20
2022-08-28T22:25:51.618Z,3.27
2022-08-28T22:28:19.761Z,3.50
2022-08-28T22:30:47.349Z,3.47
2022-08-28T22:33:15.189Z,3.30
2022-08-28T22:35:42.826Z,3.33
2022-08-28T22:38:10.327Z,3.47
2022-08-28T22:40:39.461Z,3.10
2022-08-28T22:43:07.341Z,2.90
2022-08-28T22:45:34.967Z,3.20
2022-08-28T22:48:02.845Z,3.40
2022-08-28T22:50:30.395Z,3.40
2022-08-28T22:52:57.983Z,3.23
2022-08-28T22:55:25.583Z,3.43
2022-08-28T23:09:28.412Z,3.40
2022-08-28T23:11:56.900Z,3.20
2022-08-28T23:14:27.799Z,3.40
2022-08-28T23:16:55.450Z,3.50
2022-08-28T23:19:58.027Z,3.10
2022-08-28T23:22:25.807Z,3.53
2022-08-28T23:28:45.458Z,3.53
2022-08-28T23:31:13.258Z,3.40
2022-08-28T23:33:41.019Z,3.47
2022-08-28T23:36:35.390Z,3.50
2022-08-28T23:39:04.090Z,3.63
2022-08-28T23:45:23.459Z,3.43
2022-08-28T23:47:51.498Z,3.20
2022-08-28T23:50:58.743Z,3.37
2022-08-28T23:53:26.562Z,3.20
2022-08-28T23:59:36.168Z,3.30
